createdAt,value
2017-07-22T08:56:12.323Z,26.57
2017-07-22T08:58:42.603Z,27.63
2017-07-22T09:01:20.649Z,27.10
2017-07-22T09:03:50.687Z,26.63
2017-07-22T09:06:31.463Z,25.00
2017-07-22T09:09:01.927Z,24.90
2017-07-22T09:11:40.007Z,24.20
2017-07-22T09:14:20.727Z,23.80
2017-07-22T09:16:51.118Z,22.13
2017-07-22T09:19:22.342Z,22.57
2017-07-22T09:21:53.101Z,20.63
2017-07-22T09:24:24.145Z,19.60
2017-07-22T09:26:57.455Z,20.97
2017-07-22T09:29:28.004Z,19.33
2017-07-22T09:31:58.605Z,19.37
2017-07-22T09:34:37.574Z,18.47
2017-07-22T09:37:18.403Z,18.77
2017-07-22T09:39:58.719Z,20.00
2017-07-22T09:42:39.747Z,18.00
2017-07-22T09:45:20.176Z,17.77
2017-07-22T09:47:51.783Z,17.37
2017-07-22T09:50:30.078Z,15.50
2017-07-22T09:53:08.903Z,15.73
2017-07-22T09:55:46.102Z,16.50
2017-07-22T09:58:24.286Z,14.67
2017-07-22T10:01:02.662Z,15.40
2017-07-22T10:03:42.910Z,16.10
2017-07-22T10:06:22.129Z,14.97
2017-07-22T10:09:00.102Z,14.53
2017-07-22T10:11:38.583Z,14.50
2017-07-22T10:14:17.635Z,14.90
2017-07-22T10:16:55.980Z,15.50
2017-07-22T10:19:34.986Z,13.27
2017-07-22T10:22:13.319Z,13.70
2017-07-22T10:24:53.418Z,12.93
2017-07-22T10:27:31.316Z,12.67
2017-07-22T10:30:10.337Z,14.40
2017-07-22T10:32:49.379Z,14.07
2017-07-22T10:35:29.019Z,12.20
2017-07-22T10:38:06.308Z,13.07
2017-07-22T10:40:44.340Z,12.17
2017-07-22T10:43:23.439Z,12.67
2017-07-22T10:46:02.434Z,13.37
2017-07-22T10:48:41.399Z,11.43
2017-07-22T10:51:18.151Z,11.83
2017-07-22T10:53:56.063Z,11.40
2017-07-22T10:56:36.158Z,11.00
2017-07-22T10:59:15.716Z,10.90
2017-07-22T11:01:55.209Z,12.20
2017-07-22T11:04:33.701Z,10.30
2017-07-22T11:07:14.318Z,10.60
2017-07-22T11:09:52.421Z,11.43
2017-07-22T11:12:31.549Z,10.60
2017-07-22T11:15:09.607Z,9.50
2017-07-22T11:17:47.314Z,11.13
2017-07-22T11:20:25.700Z,10.20
2017-07-22T11:23:04.922Z,10.30
2017-07-22T11:25:42.743Z,10.00
2017-07-22T11:28:23.009Z,9.20
2017-07-22T11:30:59.537Z,9.50
2017-07-22T11:33:38.796Z,10.00
2017-07-22T11:36:16.384Z,8.73
2017-07-22T11:38:55.219Z,9.17
2017-07-22T11:41:33.110Z,8.87
2017-07-22T11:44:11.960Z,8.43
2017-07-22T11:46:50.381Z,8.93
2017-07-22T11:49:29.649Z,8.40
2017-07-22T11:52:07.837Z,7.97
2017-07-22T11:54:46.556Z,7.53
2017-07-22T11:57:25.197Z,9.10
2017-07-22T12:00:04.033Z,7.90
2017-07-22T12:02:42.213Z,8.40
2017-07-22T12:05:12.777Z,7.70
2017-07-22T12:07:43.037Z,7.43
2017-07-22T12:10:13.327Z,6.83
2017-07-22T12:12:43.987Z,7.53
2017-07-22T12:15:14.347Z,8.60
2017-07-22T12:17:45.077Z,7.57
2017-07-22T12:20:15.637Z,7.50
2017-07-22T12:22:46.227Z,6.47
2017-07-22T12:25:16.647Z,7.70
2017-07-22T12:27:47.602Z,6.67
2017-07-22T12:30:18.047Z,7.23
2017-07-22T12:32:57.718Z,7.00
2017-07-22T12:35:36.651Z,7.17
2017-07-22T12:38:15.276Z,6.60
2017-07-22T12:40:53.259Z,6.70
2017-07-22T12:43:32.385Z,5.80
2017-07-22T12:46:10.897Z,5.50
2017-07-22T12:48:50.034Z,5.90
2017-07-22T12:51:28.467Z,5.90
2017-07-22T12:54:07.445Z,7.40
2017-07-22T12:56:45.610Z,7.13
2017-07-22T12:59:23.397Z,5.40
2017-07-22T13:02:01.389Z,5.33
2017-07-22T13:04:40.798Z,5.33
2017-07-22T13:07:17.849Z,6.07
2017-07-22T13:09:57.519Z,5.50
2017-07-22T13:12:35.820Z,5.43
2017-07-22T13:15:12.810Z,5.60
2017-07-22T13:17:50.998Z,4.83
2017-07-22T13:20:30.129Z,5.17
2017-07-22T13:23:08.556Z,5.47
2017-07-22T13:25:47.927Z,4.67
2017-07-22T13:28:26.854Z,5.57
2017-07-22T13:31:06.104Z,5.23
2017-07-22T13:33:44.744Z,5.37
2017-07-22T13:36:23.287Z,4.83
2017-07-22T13:39:01.784Z,4.57
2017-07-22T13:41:40.459Z,4.77
2017-07-22T13:44:18.554Z,4.53
2017-07-22T13:46:57.247Z,4.73
2017-07-22T13:49:35.874Z,4.33
2017-07-22T13:52:15.635Z,4.50
2017-07-22T13:54:53.333Z,4.33
2017-07-22T13:57:31.407Z,4.30
2017-07-22T14:00:09.816Z,5.00
2017-07-22T14:02:48.990Z,4.10
2017-07-22T14:05:26.188Z,3.90
2017-07-22T14:07:56.921Z,4.30
2017-07-22T14:10:33.051Z,3.37
2017-07-22T14:13:04.218Z,4.10
2017-07-22T14:15:43.823Z,3.83
2017-07-22T14:18:14.267Z,5.13
2017-07-22T14:20:50.419Z,4.00
2017-07-22T14:23:30.543Z,3.97
2017-07-22T14:26:09.477Z,4.03
2017-07-22T14:28:49.669Z,3.40
2017-07-22T14:31:29.247Z,3.50
2017-07-22T14:34:08.075Z,4.47
2017-07-22T14:36:46.339Z,3.97
2017-07-22T14:39:22.901Z,4.00
2017-07-22T14:42:01.600Z,4.60
2017-07-22T14:44:42.839Z,3.13
2017-07-22T14:47:23.298Z,3.60
2017-07-22T14:50:01.309Z,3.07
2017-07-22T14:52:36.737Z,3.43
2017-07-22T14:55:16.381Z,3.00
2017-07-22T14:57:46.877Z,3.80
2017-07-22T15:00:17.683Z,2.93
2017-07-22T15:02:49.107Z,3.40
2017-07-22T15:05:29.143Z,3.33
2017-07-22T15:08:06.557Z,3.53
2017-07-22T15:10:46.988Z,3.50
2017-07-22T15:13:26.574Z,3.30
2017-07-22T15:16:04.612Z,3.40
2017-07-22T15:18:41.567Z,3.87
2017-07-22T15:21:21.095Z,3.53
2017-07-22T15:24:01.026Z,4.53
2017-07-22T15:26:40.977Z,5.13
2017-07-22T15:29:21.593Z,5.10
2017-07-22T15:32:00.578Z,6.53
2017-07-22T15:34:38.934Z,6.67
2017-07-22T15:37:18.658Z,6.77
2017-07-22T15:39:48.957Z,7.20
2017-07-22T15:42:34.789Z,7.10
2017-07-22T15:45:14.513Z,5.83
2017-07-22T15:47:55.615Z,6.53
2017-07-22T15:50:34.177Z,7.20
2017-07-22T15:53:13.983Z,7.03
2017-07-22T15:55:52.003Z,6.60
2017-07-22T15:58:31.592Z,6.30
2017-07-22T16:01:10.382Z,5.50
2017-07-22T16:03:50.877Z,6.60
2017-07-22T16:06:21.041Z,5.47
2017-07-22T16:08:59.847Z,6.37
2017-07-22T16:11:38.435Z,5.70
2017-07-22T16:14:17.260Z,3.40
2017-07-22T16:16:55.900Z,3.40
2017-07-22T16:19:35.085Z,3.20
2017-07-22T16:22:13.294Z,3.40
2017-07-22T16:24:53.626Z,4.33
2017-07-22T16:27:33.854Z,3.43
2017-07-22T16:30:13.860Z,3.77
2017-07-22T16:32:53.221Z,4.13
2017-07-22T16:35:33.094Z,3.77
2017-07-22T16:38:11.512Z,3.40
2017-07-22T16:40:49.935Z,3.43
2017-07-22T16:43:27.818Z,3.50
2017-07-22T16:46:07.165Z,3.33
2017-07-22T16:48:44.152Z,2.73
2017-07-22T16:51:20.684Z,3.00
2017-07-22T16:53:58.914Z,2.50
2017-07-22T16:56:29.736Z,2.30
2017-07-22T16:59:07.915Z,2.60
2017-07-22T17:01:47.292Z,2.80
2017-07-22T17:04:25.345Z,2.07
2017-07-22T17:07:05.731Z,2.60
2017-07-22T17:09:43.163Z,2.00
2017-07-22T17:12:13.577Z,1.47
2017-07-22T17:14:43.946Z,1.87
2017-07-22T17:17:16.837Z,1.67
2017-07-22T17:19:54.383Z,1.83
2017-07-22T17:22:25.015Z,1.60
2017-07-22T17:25:04.554Z,2.40
2017-07-22T17:27:45.751Z,2.00
2017-07-22T17:30:25.463Z,2.30
2017-07-22T17:33:06.930Z,1.93
2017-07-22T17:35:43.597Z,1.60
2017-07-22T17:38:24.456Z,1.73
2017-07-22T17:41:03.829Z,2.00
2017-07-22T17:43:34.488Z,1.47
2017-07-22T17:46:20.990Z,1.80
2017-07-22T17:48:51.321Z,1.70
2017-07-22T17:51:25.960Z,1.73
2017-07-22T17:53:56.537Z,2.67
2017-07-22T17:56:35.020Z,3.60
